Time;durP1;ratioP1;P1;durP2;ratioP2;P2;SDS_P1;SDS_P2;PMS_P1;PMS_P2;Temp;Humidity;BMP_temperature;BMP_pressure;BME280_temperature;BME280_humidity;BME280_pressure;Samples;Min_cycle;Max_cycle;Signal;HPM_P1;HPM_P2
2022/11/16 00:01:29;;;;;;;36.30;13.63;;;;;;;;;;5054691;28;20208;-58
2022/11/16 00:03:58;;;;;;;34.80;13.43;;;;;;;;;;5053677;28;20203;-58
2022/11/16 00:06:26;;;;;;;34.03;12.87;;;;;;;;;;5054468;28;20208;-58
2022/11/16 00:11:44;;;;;;;29.60;12.07;;;;;;;;;;5075151;28;20199;-57
2022/11/16 00:14:11;;;;;;;27.47;12.07;;;;;;;;;;5074692;28;20231;-57
2022/11/16 00:16:39;;;;;;;32.93;12.73;;;;;;;;;;5074232;28;20668;-55
2022/11/16 00:19:06;;;;;;;26.40;11.83;;;;;;;;;;5074610;28;20223;-57
2022/11/16 00:21:34;;;;;;;29.93;11.93;;;;;;;;;;5074769;28;20260;-56
2022/11/16 00:24:01;;;;;;;28.57;12.97;;;;;;;;;;5074944;28;20574;-57
2022/11/16 00:26:28;;;;;;;30.87;12.70;;;;;;;;;;5074294;28;20203;-56
2022/11/16 00:28:56;;;;;;;34.30;12.57;;;;;;;;;;5057218;28;20256;-54
2022/11/16 00:31:23;;;;;;;32.03;13.83;;;;;;;;;;5074260;28;20207;-57
2022/11/16 00:33:51;;;;;;;33.37;14.30;;;;;;;;;;5074567;28;20264;-56
2022/11/16 00:36:18;;;;;;;33.00;12.73;;;;;;;;;;5074330;28;20219;-54
2022/11/16 00:38:45;;;;;;;32.37;13.77;;;;;;;;;;5074098;28;20671;-53
2022/11/16 00:41:13;;;;;;;29.87;13.83;;;;;;;;;;5074156;28;20199;-57
2022/11/16 00:43:40;;;;;;;35.13;14.10;;;;;;;;;;5075098;28;20207;-55
2022/11/16 00:46:07;;;;;;;28.70;13.23;;;;;;;;;;5077401;28;20226;-56
2022/11/16 00:48:35;;;;;;;37.50;14.20;;;;;;;;;;5078307;28;20222;-56
2022/11/16 00:51:02;;;;;;;31.97;13.93;;;;;;;;;;5076908;28;20203;-56
2022/11/16 00:53:30;;;;;;;30.73;13.80;;;;;;;;;;5077046;28;20208;-58
2022/11/16 00:55:57;;;;;;;31.43;13.43;;;;;;;;;;5077950;28;20203;-55
2022/11/16 00:58:24;;;;;;;32.53;14.17;;;;;;;;;;5077876;28;20227;-53
2022/11/16 01:01:05;;;;;;;33.33;14.67;;;;;;;;;;5077304;28;20524;-56
2022/11/16 01:03:34;;;;;;;28.73;12.83;;;;;;;;;;5077049;28;20298;-55
2022/11/16 01:06:02;;;;;;;31.47;13.03;;;;;;;;;;5076834;28;20207;-55
2022/11/16 01:08:30;;;;;;;30.80;13.00;;;;;;;;;;5076993;28;20215;-55
2022/11/16 01:12:07;;;;;;;26.87;13.07;;;;;;;;;;5077774;28;20207;-56
2022/11/16 01:13:46;;;;;;;24.00;11.43;;;;;;;;;;5077480;28;20628;-57
2022/11/16 01:16:15;;;;;;;26.17;12.90;;;;;;;;;;5077420;28;20252;-55
2022/11/16 01:18:43;;;;;;;35.47;13.97;;;;;;;;;;5077380;28;20230;-55
2022/11/16 01:21:10;;;;;;;27.57;13.10;;;;;;;;;;5077409;28;20203;-57
2022/11/16 01:23:37;;;;;;;31.67;13.47;;;;;;;;;;5076570;28;20231;-56
2022/11/16 01:26:04;;;;;;;29.83;13.37;;;;;;;;;;5077369;28;20199;-55
2022/11/16 01:28:34;;;;;;;30.07;12.80;;;;;;;;;;5076770;28;20301;-55
2022/11/16 01:31:02;;;;;;;27.43;13.23;;;;;;;;;;5076214;28;20636;-56
2022/11/16 01:33:32;;;;;;;32.73;13.83;;;;;;;;;;5076406;28;20207;-57
2022/11/16 01:36:00;;;;;;;32.30;13.70;;;;;;;;;;5076885;28;20191;-58
2022/11/16 01:38:27;;;;;;;33.63;14.90;;;;;;;;;;5059809;28;20227;-56
2022/11/16 01:40:57;;;;;;;34.07;14.37;;;;;;;;;;5076053;28;20200;-59
2022/11/16 01:43:26;;;;;;;29.57;14.70;;;;;;;;;;5076403;28;20238;-57
2022/11/16 01:46:00;;;;;;;32.70;15.10;;;;;;;;;;5076905;28;20206;-53
2022/11/16 01:48:29;;;;;;;32.03;13.87;;;;;;;;;;5076149;28;20206;-57
2022/11/16 01:50:58;;;;;;;30.90;15.10;;;;;;;;;;5075934;28;20203;-55
2022/11/16 01:53:27;;;;;;;31.03;14.33;;;;;;;;;;5076434;28;20214;-56
2022/11/16 01:55:56;;;;;;;32.80;14.13;;;;;;;;;;5075105;28;20285;-56
2022/11/16 01:58:28;;;;;;;33.57;15.13;;;;;;;;;;5076576;28;20235;-56
2022/11/16 02:01:02;;;;;;;31.13;14.67;;;;;;;;;;5076967;28;20175;-57
2022/11/16 02:03:39;;;;;;;37.77;14.90;;;;;;;;;;5076294;28;20199;-58
2022/11/16 02:06:33;;;;;;;31.63;15.13;;;;;;;;;;5075770;28;20200;-55
2022/11/16 02:09:57;;;;;;;29.80;13.60;;;;;;;;;;5076898;28;20203;-55
2022/11/16 02:12:55;;;;;;;33.40;14.87;;;;;;;;;;5075984;28;20200;-53
2022/11/16 02:15:38;;;;;;;34.93;14.17;;;;;;;;;;5075790;28;20195;-57
2022/11/16 02:18:26;;;;;;;31.47;14.43;;;;;;;;;;5076369;28;20761;-56
2022/11/16 02:21:02;;;;;;;28.63;13.47;;;;;;;;;;5075549;28;20214;-57
2022/11/16 02:23:48;;;;;;;33.10;13.90;;;;;;;;;;5075239;28;20260;-55
2022/11/16 02:26:47;;;;;;;33.03;14.30;;;;;;;;;;5076620;28;20576;-58
2022/11/16 02:29:15;;;;;;;32.33;14.50;;;;;;;;;;5075572;28;20191;-56
2022/11/16 02:31:57;;;;;;;32.23;14.63;;;;;;;;;;5074956;28;20214;-55
2022/11/16 02:34:30;;;;;;;33.50;14.27;;;;;;;;;;5075471;28;20218;-58
2022/11/16 02:36:58;;;;;;;32.03;15.00;;;;;;;;;;5075132;28;20294;-58
2022/11/16 02:39:27;;;;;;;30.90;14.50;;;;;;;;;;5075140;28;20227;-55
2022/11/16 02:41:56;;;;;;;28.83;14.07;;;;;;;;;;5075117;28;20196;-57
2022/11/16 02:44:38;;;;;;;34.90;15.13;;;;;;;;;;5058694;28;20188;-56
2022/11/16 02:47:10;;;;;;;40.23;15.60;;;;;;;;;;5059081;28;20210;-57
2022/11/16 02:49:41;;;;;;;31.10;14.73;;;;;;;;;;5058829;28;20207;-57
2022/11/16 02:52:09;;;;;;;34.73;15.03;;;;;;;;;;5075847;28;20195;-57
2022/11/16 02:54:36;;;;;;;31.77;14.37;;;;;;;;;;5074807;28;20195;-57
2022/11/16 02:57:03;;;;;;;41.50;15.97;;;;;;;;;;5074542;28;20629;-56
2022/11/16 02:59:38;;;;;;;33.33;14.40;;;;;;;;;;5074540;28;20676;-57
2022/11/16 03:02:40;;;;;;;31.43;14.47;;;;;;;;;;5058639;28;20206;-57
2022/11/16 03:05:19;;;;;;;30.07;13.60;;;;;;;;;;5074629;28;20207;-56
2022/11/16 03:08:17;;;;;;;33.60;14.07;;;;;;;;;;5058808;28;20340;-57
2022/11/16 03:13:36;;;;;;;31.90;12.93;;;;;;;;;;5060689;28;20195;-59
2022/11/16 03:16:09;;;;;;;32.07;13.50;;;;;;;;;;5074309;28;20261;-57
2022/11/16 03:18:37;;;;;;;33.37;12.97;;;;;;;;;;5074609;28;20238;-56
2022/11/16 03:21:10;;;;;;;25.07;12.17;;;;;;;;;;5058056;28;20203;-56
2022/11/16 03:23:37;;;;;;;25.97;12.57;;;;;;;;;;5057876;28;20214;-56
2022/11/16 03:26:07;;;;;;;33.53;12.57;;;;;;;;;;5074402;28;20640;-57
2022/11/16 03:28:42;;;;;;;25.27;12.30;;;;;;;;;;5057903;28;20214;-56
2022/11/16 03:31:14;;;;;;;27.67;12.03;;;;;;;;;;5075350;28;20292;-60
2022/11/16 03:33:45;;;;;;;25.43;12.73;;;;;;;;;;5074848;28;20689;-57
2022/11/16 03:36:24;;;;;;;27.60;11.93;;;;;;;;;;5074259;28;20207;-56
2022/11/16 03:38:51;;;;;;;25.80;12.63;;;;;;;;;;5074342;28;20207;-56
2022/11/16 03:41:22;;;;;;;25.23;11.90;;;;;;;;;;5074041;28;20620;-57
2022/11/16 03:43:49;;;;;;;24.97;11.07;;;;;;;;;;5057730;28;20261;-55
2022/11/16 03:46:17;;;;;;;24.40;11.23;;;;;;;;;;5057506;28;20203;-57
2022/11/16 03:48:44;;;;;;;28.90;12.73;;;;;;;;;;5073798;28;20210;-56
2022/11/16 03:51:20;;;;;;;29.40;11.23;;;;;;;;;;5074565;28;20199;-55
2022/11/16 03:53:47;;;;;;;23.63;10.53;;;;;;;;;;5073729;28;20230;-55
2022/11/16 03:56:14;;;;;;;25.30;11.37;;;;;;;;;;5073968;28;20218;-58
2022/11/16 03:58:41;;;;;;;19.83;10.00;;;;;;;;;;5073650;28;20206;-57
2022/11/16 04:01:08;;;;;;;24.00;10.70;;;;;;;;;;5073697;28;20203;-58
2022/11/16 04:03:36;;;;;;;20.87;10.50;;;;;;;;;;5073722;28;20624;-55
2022/11/16 04:24:11;;;;;;;22.10;10.10;;;;;;;;;;5074946;28;20260;-56
2022/11/16 04:25:53;;;;;;;18.73;7.67;;;;;;;;;;5059292;28;20195;-56
2022/11/16 04:28:27;;;;;;;19.27;8.10;;;;;;;;;;5051376;28;20200;-57
2022/11/16 04:39:28;;;;;;;17.07;7.87;;;;;;;;;;5066688;28;20215;-57
2022/11/16 04:42:14;;;;;;;17.27;8.53;;;;;;;;;;5058630;28;20204;-58
2022/11/16 04:47:50;;;;;;;21.57;8.63;;;;;;;;;;5071046;28;20203;-58
2022/11/16 04:50:19;;;;;;;20.47;8.17;;;;;;;;;;5066213;28;20208;-56
2022/11/16 04:52:48;;;;;;;22.57;8.83;;;;;;;;;;5058956;28;20196;-58
2022/11/16 04:55:15;;;;;;;19.03;9.00;;;;;;;;;;5063544;28;20219;-59
2022/11/16 04:57:44;;;;;;;20.40;9.33;;;;;;;;;;5098016;28;20306;-60
2022/11/16 05:00:14;;;;;;;20.13;9.37;;;;;;;;;;5075197;28;20231;-58
2022/11/16 05:02:41;;;;;;;19.70;8.90;;;;;;;;;;5067496;28;20224;-58
2022/11/16 05:05:08;;;;;;;18.50;8.50;;;;;;;;;;5059610;28;20215;-57
2022/11/16 05:07:39;;;;;;;18.20;9.20;;;;;;;;;;5068276;28;20319;-57
2022/11/16 05:10:13;;;;;;;26.97;10.07;;;;;;;;;;5059368;28;20232;-55
2022/11/16 05:12:41;;;;;;;26.77;11.20;;;;;;;;;;5055940;28;20251;-58
2022/11/16 05:15:09;;;;;;;34.00;12.33;;;;;;;;;;5071264;28;20529;-58
2022/11/16 05:17:37;;;;;;;29.03;11.53;;;;;;;;;;5075807;28;20758;-58
2022/11/16 05:23:01;;;;;;;19.63;8.83;;;;;;;;;;5076557;28;20235;-58
2022/11/16 05:25:38;;;;;;;21.90;9.43;;;;;;;;;;5073221;28;20229;-56
2022/11/16 05:28:09;;;;;;;25.50;9.77;;;;;;;;;;5056153;28;20555;-57
2022/11/16 05:30:39;;;;;;;24.23;10.37;;;;;;;;;;5054457;28;20586;-57
2022/11/16 05:33:07;;;;;;;22.73;10.50;;;;;;;;;;5054863;28;20228;-55
2022/11/16 05:35:38;;;;;;;20.07;9.00;;;;;;;;;;5088797;28;20258;-57
2022/11/16 05:38:05;;;;;;;23.70;10.53;;;;;;;;;;5055237;28;20243;-57
2022/11/16 05:40:38;;;;;;;23.30;9.57;;;;;;;;;;5069653;28;20672;-52
2022/11/16 05:43:05;;;;;;;18.27;9.20;;;;;;;;;;5075188;28;20227;-57
2022/11/16 05:45:38;;;;;;;23.87;9.67;;;;;;;;;;5074841;28;23393;-56
2022/11/16 05:48:07;;;;;;;21.63;10.40;;;;;;;;;;5074071;28;20258;-61
2022/11/16 05:50:34;;;;;;;22.20;10.03;;;;;;;;;;5073627;28;20297;-58
2022/11/16 05:53:18;;;;;;;20.10;9.00;;;;;;;;;;5072676;28;20227;-58
2022/11/16 05:55:46;;;;;;;17.57;8.30;;;;;;;;;;5106146;28;20223;-56
2022/11/16 05:58:13;;;;;;;18.90;9.37;;;;;;;;;;5074404;28;20228;-55
2022/11/16 06:00:40;;;;;;;17.43;8.90;;;;;;;;;;5073599;28;20593;-58
2022/11/16 06:03:09;;;;;;;19.77;8.33;;;;;;;;;;5074007;28;20223;-55
2022/11/16 06:05:36;;;;;;;19.70;8.47;;;;;;;;;;5074841;28;20345;-54
2022/11/16 06:08:08;;;;;;;16.83;8.87;;;;;;;;;;5073870;28;20227;-57
2022/11/16 06:10:35;;;;;;;17.97;8.97;;;;;;;;;;5058081;28;20224;-60
2022/11/16 06:13:04;;;;;;;18.50;9.13;;;;;;;;;;5074145;28;20224;-59
2022/11/16 06:15:36;;;;;;;16.90;8.13;;;;;;;;;;5074765;28;20231;-58
2022/11/16 06:18:04;;;;;;;20.43;9.93;;;;;;;;;;5074807;28;20248;-60
2022/11/16 06:20:31;;;;;;;21.17;10.37;;;;;;;;;;5075257;28;20238;-58
2022/11/16 06:22:58;;;;;;;22.47;10.00;;;;;;;;;;5075194;28;20223;-57
2022/11/16 06:25:26;;;;;;;21.10;9.87;;;;;;;;;;5075426;28;20202;-57
2022/11/16 06:27:53;;;;;;;26.90;11.87;;;;;;;;;;5075322;28;20222;-56
2022/11/16 06:30:21;;;;;;;43.10;17.57;;;;;;;;;;5075313;28;20203;-57
2022/11/16 06:32:48;;;;;;;27.97;13.53;;;;;;;;;;5075816;28;20215;-56
2022/11/16 06:35:15;;;;;;;24.00;10.10;;;;;;;;;;5075256;28;20203;-55
2022/11/16 06:37:43;;;;;;;17.47;9.07;;;;;;;;;;5074913;28;20556;-57
2022/11/16 06:40:10;;;;;;;15.13;8.37;;;;;;;;;;5075779;28;20255;-55
2022/11/16 06:42:43;;;;;;;16.57;7.83;;;;;;;;;;5074970;28;20257;-56
2022/11/16 06:45:12;;;;;;;16.17;8.17;;;;;;;;;;5074749;28;20203;-57
2022/11/16 06:47:44;;;;;;;21.73;9.40;;;;;;;;;;5074803;28;20539;-58
2022/11/16 06:50:11;;;;;;;18.47;9.53;;;;;;;;;;5074200;28;20286;-56
2022/11/16 06:52:39;;;;;;;20.53;9.53;;;;;;;;;;5074980;28;20216;-57
2022/11/16 06:55:06;;;;;;;15.87;8.33;;;;;;;;;;5075347;28;20226;-56
2022/11/16 06:57:35;;;;;;;17.33;8.57;;;;;;;;;;5074967;28;20241;-57
2022/11/16 07:00:04;;;;;;;16.20;8.43;;;;;;;;;;5074690;28;20272;-55
2022/11/16 07:02:36;;;;;;;22.10;10.40;;;;;;;;;;5074502;28;20215;-56
2022/11/16 07:05:06;;;;;;;17.93;9.73;;;;;;;;;;5074805;28;20184;-55
2022/11/16 07:07:33;;;;;;;20.27;9.70;;;;;;;;;;5076032;28;20203;-56
2022/11/16 07:10:01;;;;;;;19.00;9.07;;;;;;;;;;5074440;28;20217;-56
2022/11/16 07:12:29;;;;;;;18.55;8.55;;;;;;;;;;5074305;28;20199;-58
2022/11/16 07:14:57;;;;;;;24.13;11.10;;;;;;;;;;5057399;28;20653;-58
2022/11/16 07:17:25;;;;;;;18.73;9.30;;;;;;;;;;5074579;28;20242;-54
2022/11/16 07:19:52;;;;;;;19.92;8.88;;;;;;;;;;5074394;28;20195;-57
2022/11/16 07:22:19;;;;;;;26.10;12.50;;;;;;;;;;5074151;28;20598;-57
2022/11/16 07:24:49;;;;;;;24.73;12.03;;;;;;;;;;5074750;28;20203;-55
2022/11/16 07:27:19;;;;;;;18.60;9.17;;;;;;;;;;5074038;28;20214;-57
2022/11/16 07:29:49;;;;;;;16.23;8.07;;;;;;;;;;5074796;28;20636;-56
2022/11/16 07:32:34;;;;;;;18.17;9.07;;;;;;;;;;5075317;28;20204;-55
2022/11/16 07:35:13;;;;;;;28.53;11.17;;;;;;;;;;5074205;28;20642;-55
2022/11/16 07:37:41;;;;;;;20.83;10.07;;;;;;;;;;5073996;28;20234;-58
2022/11/16 07:40:09;;;;;;;21.80;9.43;;;;;;;;;;5074128;28;20254;-55
2022/11/16 07:42:37;;;;;;;19.93;9.20;;;;;;;;;;5073896;28;20586;-56
2022/11/16 07:45:12;;;;;;;17.90;8.83;;;;;;;;;;5074071;28;20620;-55
2022/11/16 07:47:51;;;;;;;18.00;8.90;;;;;;;;;;5073927;28;20215;-57
2022/11/16 07:50:31;;;;;;;16.10;8.23;;;;;;;;;;5074041;28;20223;-57
2022/11/16 07:52:58;;;;;;;16.87;8.07;;;;;;;;;;5073866;28;20210;-56
2022/11/16 07:55:30;;;;;;;16.10;7.73;;;;;;;;;;5074162;28;20195;-55
2022/11/16 07:57:58;;;;;;;11.63;6.43;;;;;;;;;;5073747;28;20202;-58
2022/11/16 08:00:25;;;;;;;12.83;6.90;;;;;;;;;;5073938;28;20253;-56
2022/11/16 08:03:02;;;;;;;15.73;7.20;;;;;;;;;;5073878;28;20222;-56
2022/11/16 08:05:29;;;;;;;14.87;7.00;;;;;;;;;;5073775;28;20211;-55
2022/11/16 08:07:56;;;;;;;28.00;9.67;;;;;;;;;;5074629;28;20199;-56
2022/11/16 08:10:24;;;;;;;24.20;8.53;;;;;;;;;;5074267;28;20284;-58
2022/11/16 08:12:54;;;;;;;30.90;9.73;;;;;;;;;;5073600;28;20647;-55
2022/11/16 08:15:23;;;;;;;18.43;8.67;;;;;;;;;;5073776;28;20569;-58
2022/11/16 08:17:51;;;;;;;27.50;12.20;;;;;;;;;;5073615;28;20300;-58
2022/11/16 08:20:18;;;;;;;21.40;9.60;;;;;;;;;;5074598;28;20308;-56
2022/11/16 08:22:48;;;;;;;31.90;11.37;;;;;;;;;;5073581;28;20705;-56
2022/11/16 08:25:16;;;;;;;31.03;11.53;;;;;;;;;;5057222;28;20264;-56
2022/11/16 08:27:44;;;;;;;19.23;8.50;;;;;;;;;;5073485;28;20207;-56
2022/11/16 08:30:12;;;;;;;18.17;7.30;;;;;;;;;;5074146;28;20659;-57
2022/11/16 08:32:41;;;;;;;24.33;9.63;;;;;;;;;;5074293;28;20253;-57
2022/11/16 08:35:09;;;;;;;15.43;6.63;;;;;;;;;;5073566;28;20633;-56
2022/11/16 08:37:37;;;;;;;18.50;6.43;;;;;;;;;;5073350;28;20238;-56
2022/11/16 08:40:04;;;;;;;13.57;6.93;;;;;;;;;;5074574;28;20293;-54
2022/11/16 08:42:36;;;;;;;10.90;5.27;;;;;;;;;;5073446;28;20208;-57
2022/11/16 08:45:09;;;;;;;12.27;6.43;;;;;;;;;;5073480;28;20208;-55
2022/11/16 08:47:36;;;;;;;13.90;6.60;;;;;;;;;;5073572;28;20207;-56
2022/11/16 08:50:05;;;;;;;10.13;5.33;;;;;;;;;;5073861;28;20215;-56
2022/11/16 08:52:33;;;;;;;10.77;5.03;;;;;;;;;;5074972;28;20588;-57
2022/11/16 08:55:01;;;;;;;8.77;4.47;;;;;;;;;;5073215;28;20628;-57
2022/11/16 08:57:29;;;;;;;11.10;5.13;;;;;;;;;;5074154;28;20639;-56
2022/11/16 08:59:58;;;;;;;6.90;3.80;;;;;;;;;;5073206;28;20207;-56
2022/11/16 09:02:26;;;;;;;7.83;4.67;;;;;;;;;;5073985;28;20536;-57
2022/11/16 09:04:53;;;;;;;5.22;3.50;;;;;;;;;;5074114;28;20275;-56
2022/11/16 09:07:20;;;;;;;8.30;3.27;;;;;;;;;;5077660;28;20200;-58
2022/11/16 09:09:47;;;;;;;5.87;2.80;;;;;;;;;;5077844;28;20294;-57
2022/11/16 09:12:14;;;;;;;4.90;2.70;;;;;;;;;;5077755;28;20200;-56
2022/11/16 09:14:41;;;;;;;4.63;2.77;;;;;;;;;;5077464;28;20717;-55
2022/11/16 09:17:09;;;;;;;4.23;2.33;;;;;;;;;;5077464;28;20250;-57
2022/11/16 09:19:35;;;;;;;6.05;2.85;;;;;;;;;;5077558;28;20199;-56
2022/11/16 09:22:03;;;;;;;5.83;3.90;;;;;;;;;;5077395;28;20235;-58
2022/11/16 09:24:30;;;;;;;6.17;3.60;;;;;;;;;;5077593;28;20214;-56
2022/11/16 09:27:00;;;;;;;5.73;3.00;;;;;;;;;;5077458;28;20212;-55
2022/11/16 09:29:27;;;;;;;5.87;3.40;;;;;;;;;;5077435;28;20199;-57
2022/11/16 09:31:54;;;;;;;6.57;4.13;;;;;;;;;;5077359;28;20211;-57
2022/11/16 09:34:21;;;;;;;6.57;3.30;;;;;;;;;;5077363;28;20621;-56
2022/11/16 09:36:49;;;;;;;5.33;3.13;;;;;;;;;;5077030;28;20199;-55
2022/11/16 09:39:15;;;;;;;4.93;3.00;;;;;;;;;;5077066;28;20336;-57
2022/11/16 09:42:01;;;;;;;4.23;2.30;;;;;;;;;;5077495;28;20284;-54
2022/11/16 09:44:37;;;;;;;3.80;2.30;;;;;;;;;;5077271;28;20210;-56
2022/11/16 09:47:14;;;;;;;3.00;2.00;;;;;;;;;;5077040;28;20207;-57
2022/11/16 09:49:52;;;;;;;5.00;2.38;;;;;;;;;;5076273;28;20195;-56
2022/11/16 09:52:37;;;;;;;6.17;2.03;;;;;;;;;;5076464;28;20551;-56
2022/11/16 09:55:27;;;;;;;2.77;1.93;;;;;;;;;;5077101;28;20203;-54
2022/11/16 09:57:57;;;;;;;6.63;1.90;;;;;;;;;;5075835;28;20203;-55
2022/11/16 10:00:24;;;;;;;2.80;1.90;;;;;;;;;;5075929;28;20529;-55
2022/11/16 10:03:04;;;;;;;3.97;1.83;;;;;;;;;;5075659;28;20773;-58
2022/11/16 10:05:46;;;;;;;3.30;1.90;;;;;;;;;;5076877;28;20199;-56
2022/11/16 10:08:20;;;;;;;4.27;3.63;;;;;;;;;;5076735;28;20204;-55
2022/11/16 10:11:24;;;;;;;4.85;3.80;;;;;;;;;;5075900;28;20219;-56
2022/11/16 10:13:58;;;;;;;3.53;2.53;;;;;;;;;;5076489;28;20214;-57
2022/11/16 10:16:48;;;;;;;4.70;2.50;;;;;;;;;;5075264;28;20688;-57
2022/11/16 10:19:22;;;;;;;4.57;2.00;;;;;;;;;;5076700;28;20207;-57
2022/11/16 10:22:17;;;;;;;3.10;2.20;;;;;;;;;;5075311;28;20223;-56
2022/11/16 10:24:56;;;;;;;3.47;2.20;;;;;;;;;;5076095;28;20203;-55
2022/11/16 10:27:48;;;;;;;5.33;2.30;;;;;;;;;;5076807;28;20207;-55
2022/11/16 10:30:19;;;;;;;3.47;1.63;;;;;;;;;;5075699;28;20203;-57
2022/11/16 10:32:59;;;;;;;2.77;1.70;;;;;;;;;;5075051;28;20295;-58
2022/11/16 10:35:34;;;;;;;3.33;1.90;;;;;;;;;;5075307;28;20187;-54
2022/11/16 10:38:02;;;;;;;2.27;1.67;;;;;;;;;;5075461;28;20187;-56
2022/11/16 10:40:37;;;;;;;3.20;2.07;;;;;;;;;;5075167;28;20210;-56
2022/11/16 10:43:12;;;;;;;3.37;2.37;;;;;;;;;;5075883;28;20199;-55
2022/11/16 10:46:15;;;;;;;3.90;1.93;;;;;;;;;;5075476;28;20568;-56
2022/11/16 10:48:53;;;;;;;4.13;1.83;;;;;;;;;;5034224;28;20223;-55
2022/11/16 10:51:20;;;;;;;3.53;2.27;;;;;;;;;;5034520;28;20217;-57
2022/11/16 10:53:48;;;;;;;4.60;2.30;;;;;;;;;;5034022;28;20201;-56
2022/11/16 10:56:20;;;;;;;3.63;2.33;;;;;;;;;;5033977;28;20212;-56
2022/11/16 10:58:54;;;;;;;3.50;2.20;;;;;;;;;;5034200;28;20201;-56
2022/11/16 11:01:31;;;;;;;3.63;2.33;;;;;;;;;;5034053;28;20265;-58
2022/11/16 11:04:23;;;;;;;3.13;2.03;;;;;;;;;;5034120;28;20204;-56
2022/11/16 11:06:57;;;;;;;5.50;2.80;;;;;;;;;;5033852;28;20536;-57
2022/11/16 11:09:26;;;;;;;4.80;2.80;;;;;;;;;;5033942;28;20639;-57
2022/11/16 11:15:10;;;;;;;7.03;3.37;;;;;;;;;;5033764;28;20212;-55
2022/11/16 11:17:40;;;;;;;9.80;3.30;;;;;;;;;;5033546;28;20232;-57
2022/11/16 11:20:13;;;;;;;4.97;2.80;;;;;;;;;;5033788;28;20208;-57
2022/11/16 11:23:10;;;;;;;6.70;3.10;;;;;;;;;;5053698;28;20671;-58
2022/11/16 11:25:52;;;;;;;6.20;3.70;;;;;;;;;;5075939;28;20214;-57
2022/11/16 11:28:31;;;;;;;5.63;3.20;;;;;;;;;;5074962;28;20203;-56
2022/11/16 11:31:08;;;;;;;5.27;3.47;;;;;;;;;;5074469;28;20199;-57
2022/11/16 11:33:37;;;;;;;5.80;3.20;;;;;;;;;;5074354;28;20203;-57
2022/11/16 11:36:06;;;;;;;8.37;4.07;;;;;;;;;;5074307;28;20268;-56
2022/11/16 11:38:34;;;;;;;13.10;6.43;;;;;;;;;;5075002;28;20196;-58
2022/11/16 11:41:04;;;;;;;11.87;6.23;;;;;;;;;;5073873;28;20203;-57
2022/11/16 11:43:34;;;;;;;15.17;7.90;;;;;;;;;;5074830;28;20573;-55
2022/11/16 11:46:05;;;;;;;12.03;6.07;;;;;;;;;;5075194;28;20221;-56
2022/11/16 11:48:36;;;;;;;19.17;7.77;;;;;;;;;;5074227;28;20234;-57
2022/11/16 11:51:14;;;;;;;18.00;7.90;;;;;;;;;;5074870;28;20195;-56
2022/11/16 11:53:50;;;;;;;15.07;7.63;;;;;;;;;;5074296;28;20184;-56
2022/11/16 11:56:18;;;;;;;19.27;9.20;;;;;;;;;;5073799;28;20199;-55
2022/11/16 11:58:47;;;;;;;16.13;8.33;;;;;;;;;;5073758;28;20265;-57
2022/11/16 12:01:35;;;;;;;13.40;7.18;;;;;;;;;;5073914;28;20246;-59
2022/11/16 12:04:35;;;;;;;11.03;6.23;;;;;;;;;;5074853;28;20194;-58
2022/11/16 12:07:11;;;;;;;14.73;7.63;;;;;;;;;;5069285;28;20223;-58
2022/11/16 12:10:09;;;;;;;9.27;5.63;;;;;;;;;;5073493;28;20230;-58
2022/11/16 12:12:48;;;;;;;8.30;5.30;;;;;;;;;;5073270;28;20289;-58
2022/11/16 12:15:21;;;;;;;9.18;5.28;;;;;;;;;;5073809;28;20222;-57
2022/11/16 12:18:07;;;;;;;7.93;4.87;;;;;;;;;;5062048;28;20226;-58
2022/11/16 12:20:55;;;;;;;8.67;5.20;;;;;;;;;;5073349;28;20227;-58
2022/11/16 12:23:37;;;;;;;10.07;6.13;;;;;;;;;;5055533;28;20232;-58
2022/11/16 12:26:17;;;;;;;10.77;5.90;;;;;;;;;;5053873;28;20246;-56
2022/11/16 12:28:52;;;;;;;10.13;5.63;;;;;;;;;;5053564;28;20657;-57
2022/11/16 12:31:35;;;;;;;10.00;6.33;;;;;;;;;;5053089;28;20253;-59
2022/11/16 12:34:12;;;;;;;10.63;6.70;;;;;;;;;;5053748;28;20227;-56
2022/11/16 12:37:00;;;;;;;12.13;6.33;;;;;;;;;;5053280;28;20293;-57
2022/11/16 12:39:34;;;;;;;11.23;6.47;;;;;;;;;;5052512;28;20556;-55
2022/11/16 12:42:37;;;;;;;10.37;6.20;;;;;;;;;;5056754;28;20571;-56
2022/11/16 12:45:22;;;;;;;12.87;5.70;;;;;;;;;;5022836;28;20223;-52
2022/11/16 12:48:08;;;;;;;12.43;5.70;;;;;;;;;;5056592;28;20236;-56
2022/11/16 12:50:44;;;;;;;9.53;5.87;;;;;;;;;;5056271;28;20306;-59
2022/11/16 12:53:29;;;;;;;8.38;5.65;;;;;;;;;;5071786;28;20223;-55
2022/11/16 12:56:10;;;;;;;20.73;9.60;;;;;;;;;;5077336;28;20219;-57
2022/11/16 12:58:43;;;;;;;15.67;8.37;;;;;;;;;;5075994;28;20241;-57
2022/11/16 13:01:17;;;;;;;15.23;8.13;;;;;;;;;;5076610;28;20223;-57
2022/11/16 13:04:07;;;;;;;17.97;7.87;;;;;;;;;;5076093;28;20222;-58
2022/11/16 13:06:37;;;;;;;10.87;6.70;;;;;;;;;;5073303;28;20232;-57
2022/11/16 13:09:13;;;;;;;16.27;6.93;;;;;;;;;;5076901;28;20219;-54
2022/11/16 13:11:47;;;;;;;10.53;6.27;;;;;;;;;;5076994;28;20219;-54
2022/11/16 13:14:22;;;;;;;17.20;7.40;;;;;;;;;;5058812;28;20219;-56
2022/11/16 13:16:50;;;;;;;13.33;8.10;;;;;;;;;;5075815;28;20239;-56
2022/11/16 13:19:17;;;;;;;13.73;7.93;;;;;;;;;;5075891;28;20227;-58
2022/11/16 13:21:51;;;;;;;12.93;7.70;;;;;;;;;;5075925;28;20288;-55
2022/11/16 13:24:23;;;;;;;13.00;7.00;;;;;;;;;;5075991;28;20235;-55
2022/11/16 13:27:26;;;;;;;16.50;8.50;;;;;;;;;;5076068;28;20220;-55
2022/11/16 13:29:56;;;;;;;14.57;8.38;;;;;;;;;;5069723;28;20256;-57
2022/11/16 13:32:33;;;;;;;12.97;8.07;;;;;;;;;;5076582;28;20238;-58
2022/11/16 13:35:04;;;;;;;12.60;6.97;;;;;;;;;;5076491;28;20238;-56
2022/11/16 13:37:37;;;;;;;11.40;7.27;;;;;;;;;;5076114;28;20237;-57
2022/11/16 13:40:04;;;;;;;15.70;7.60;;;;;;;;;;5076377;28;20226;-57
2022/11/16 13:42:43;;;;;;;14.93;7.13;;;;;;;;;;5076045;28;20257;-56
2022/11/16 13:45:16;;;;;;;11.90;6.47;;;;;;;;;;5076152;28;20215;-53
2022/11/16 13:47:57;;;;;;;10.67;6.27;;;;;;;;;;5075484;28;20219;-59
2022/11/16 13:50:31;;;;;;;10.33;5.60;;;;;;;;;;5075700;28;20253;-55
2022/11/16 13:53:06;;;;;;;12.05;6.38;;;;;;;;;;5072389;28;20239;-58
2022/11/16 13:56:20;;;;;;;9.00;5.20;;;;;;;;;;5073259;28;20231;-54
2022/11/16 13:58:54;;;;;;;13.13;7.07;;;;;;;;;;5074934;28;20243;-55
2022/11/16 14:01:22;;;;;;;11.57;5.93;;;;;;;;;;5076043;28;20664;-59
2022/11/16 14:03:51;;;;;;;9.67;5.80;;;;;;;;;;5076374;28;20296;-55
2022/11/16 14:06:18;;;;;;;8.93;5.53;;;;;;;;;;5074394;28;20223;-57
2022/11/16 14:08:49;;;;;;;13.00;6.23;;;;;;;;;;5075532;28;20624;-58
2022/11/16 14:11:35;;;;;;;11.23;6.23;;;;;;;;;;5068142;28;20774;-51
2022/11/16 14:14:04;;;;;;;9.03;5.80;;;;;;;;;;5072977;28;20313;-57
2022/11/16 14:16:42;;;;;;;10.17;5.70;;;;;;;;;;5074657;28;20583;-59
2022/11/16 14:19:48;;;;;;;10.03;5.90;;;;;;;;;;5075984;28;20305;-58
2022/11/16 14:22:43;;;;;;;13.35;6.18;;;;;;;;;;5071363;28;20235;-58
2022/11/16 14:25:29;;;;;;;9.10;5.40;;;;;;;;;;5075042;28;20306;-58
2022/11/16 14:28:06;;;;;;;9.87;5.57;;;;;;;;;;5055743;28;20238;-56
2022/11/16 14:30:45;;;;;;;8.83;5.20;;;;;;;;;;5056595;28;20223;-57
2022/11/16 14:33:24;;;;;;;11.30;5.97;;;;;;;;;;5074456;28;20663;-58
2022/11/16 14:35:52;;;;;;;12.37;5.47;;;;;;;;;;5074058;28;20230;-59
2022/11/16 14:38:31;;;;;;;10.13;5.93;;;;;;;;;;5074315;28;20227;-60
2022/11/16 14:41:01;;;;;;;11.13;7.10;;;;;;;;;;5074843;28;20222;-59
2022/11/16 14:43:41;;;;;;;12.37;7.07;;;;;;;;;;5074237;28;20235;-52
2022/11/16 14:46:18;;;;;;;11.50;6.63;;;;;;;;;;5073410;28;20243;-54
2022/11/16 14:48:46;;;;;;;9.83;5.10;;;;;;;;;;5073263;28;20261;-55
2022/11/16 14:51:17;;;;;;;9.90;5.77;;;;;;;;;;5074333;28;20235;-48
2022/11/16 14:53:47;;;;;;;10.30;5.33;;;;;;;;;;5073874;28;20232;-55
2022/11/16 14:56:16;;;;;;;9.98;4.50;;;;;;;;;;5074584;28;20231;-57
2022/11/16 14:58:55;;;;;;;7.60;4.60;;;;;;;;;;5074771;28;20231;-54
2022/11/16 15:01:34;;;;;;;6.90;4.37;;;;;;;;;;5074526;28;20284;-55
2022/11/16 15:04:05;;;;;;;9.47;4.20;;;;;;;;;;5074245;28;20242;-53
2022/11/16 15:06:39;;;;;;;7.20;4.70;;;;;;;;;;5074183;28;20223;-56
2022/11/16 15:09:13;;;;;;;5.27;3.53;;;;;;;;;;5073861;28;20223;-53
2022/11/16 15:14:30;;;;;;;5.23;3.67;;;;;;;;;;5074298;28;20602;-50
2022/11/16 15:16:58;;;;;;;5.27;4.13;;;;;;;;;;5074492;28;20239;-56
2022/11/16 15:19:28;;;;;;;6.43;4.40;;;;;;;;;;5074270;28;20265;-60
2022/11/16 15:21:59;;;;;;;6.97;4.53;;;;;;;;;;5073859;28;20230;-53
2022/11/16 15:24:31;;;;;;;5.60;4.40;;;;;;;;;;5073146;28;20223;-53
2022/11/16 15:27:13;;;;;;;10.07;5.93;;;;;;;;;;5072258;28;20215;-51
2022/11/16 15:29:40;;;;;;;7.67;4.87;;;;;;;;;;5072578;28;20234;-50
2022/11/16 15:32:12;;;;;;;7.77;4.77;;;;;;;;;;5072939;28;20609;-48
2022/11/16 15:34:40;;;;;;;9.57;5.60;;;;;;;;;;5071822;28;20235;-47
2022/11/16 15:37:11;;;;;;;8.83;5.33;;;;;;;;;;5073991;28;20261;-52
2022/11/16 15:39:38;;;;;;;9.93;5.13;;;;;;;;;;5073376;28;20219;-52
2022/11/16 15:42:07;;;;;;;8.07;4.93;;;;;;;;;;5074043;28;20211;-48
2022/11/16 15:44:34;;;;;;;8.20;5.07;;;;;;;;;;5072767;28;20238;-49
2022/11/16 15:47:02;;;;;;;10.50;5.43;;;;;;;;;;5073596;28;20227;-51